»·PEaware :: N12PL KEGE-KTEX

N12PL :: KEGE-KTEX

FLIGHT INFORMATION

Flight Status: Arrived
Operator: Privately registered:
United States
More flights under this callsign
Pilot: Ethan S. (29221)
Aircraft: CANADAIR CL-600 CHALLENGER
(CL60)
More flights by this aircraft type
Origin: KEGE Eagle Co Regl
United States
Destination: KTEX Telluride Regl
United States
More flights between these airports :: More routes between these airports
Route: BEVVR1 SPRKT ECNOF ETL
File this flight plan on PilotEdge
Remarks:
Altitude:
(Current/Filed)
28,000ft
Speed:
(Current/Filed)
465kts
Departed: 09-Sep-23 01:24 PM
Arrived: 09-Sep-23 01:55 PM
Distance/Time
Traveled:
111nm/0:31
Distance/Time
To Go:
Arrived

Flight Plot

Page will automatically refresh every two minutes.

Flight plan parsing failed; only flown route is shown


Map Options




Map Legend


Flown Route
Filed Route
Departure Airport
Arrival Airport
Navaid (VOR, NDB)
Fix

Horizontal Profiles

Position Reports

Time Latitude Longitude Heading Altitude Ground
Speed
09-Sep-23 13:08 39.641242 -106.908880 261 6550ft 0kts
09-Sep-23 13:09 39.641242 -106.908880 261 6550ft 0kts
09-Sep-23 13:10 39.641242 -106.908880 261 6550ft 0kts
09-Sep-23 13:11 39.641242 -106.908880 261 6550ft 0kts
09-Sep-23 13:12 39.641242 -106.908880 261 6550ft 0kts
09-Sep-23 13:13 39.641242 -106.908880 261 6550ft 0kts
09-Sep-23 13:14 39.641242 -106.908880 261 6550ft 0kts
09-Sep-23 13:15 39.641242 -106.908880 261 6550ft 0kts
09-Sep-23 13:16 39.641242 -106.908880 261 6550ft 0kts
09-Sep-23 13:17 39.641242 -106.908880 261 6550ft 0kts
09-Sep-23 13:18 39.641242 -106.908880 261 6550ft 0kts
09-Sep-23 13:19 39.641241 -106.908889 261 6550ft 0kts
09-Sep-23 13:20 39.642520 -106.908116 80 6550ft 14kts
09-Sep-23 13:21 39.643261 -106.901310 82 6550ft 17kts
09-Sep-23 13:22 39.644295 -106.902101 261 6550ft 14kts
09-Sep-23 13:23 39.633595 -106.944903 220 7733ft 228kts
09-Sep-23 13:24 39.580616 -107.002337 256 11422ft 265kts
09-Sep-23 13:25 39.602641 -107.088683 314 15174ft 275kts
09-Sep-23 13:26 39.677249 -107.101074 9 19058ft 301kts
09-Sep-23 13:27 39.751640 -107.125002 302 23008ft 295kts
09-Sep-23 13:28 39.803444 -107.224533 301 24661ft 375kts
09-Sep-23 13:29 39.863604 -107.340180 300 27865ft 391kts
09-Sep-23 13:30 39.916064 -107.468952 274 28939ft 420kts
09-Sep-23 13:31 39.859433 -107.591968 208 28974ft 433kts
09-Sep-23 13:32 39.742670 -107.639212 203 28956ft 437kts
09-Sep-23 13:33 39.626864 -107.690217 203 28953ft 437kts
09-Sep-23 13:35 39.511510 -107.742758 203 28950ft 437kts
09-Sep-23 13:36 39.395987 -107.795759 203 28956ft 437kts
09-Sep-23 13:37 39.280612 -107.848660 203 28989ft 438kts
09-Sep-23 13:38 39.165296 -107.901423 203 28990ft 438kts
09-Sep-23 13:39 39.050109 -107.953975 203 29036ft 438kts
09-Sep-23 13:40 38.934694 -108.006472 203 29085ft 440kts
09-Sep-23 13:41 38.818742 -108.058987 203 29053ft 440kts
09-Sep-23 13:42 38.702671 -108.111362 203 29041ft 441kts
09-Sep-23 13:43 38.586755 -108.163471 203 28782ft 439kts
09-Sep-23 13:44 38.476211 -108.213089 203 26692ft 402kts
09-Sep-23 13:45 38.373326 -108.259127 202 24565ft 386kts
09-Sep-23 13:46 38.273198 -108.303756 202 22491ft 376kts
09-Sep-23 13:47 38.173037 -108.326966 166 20347ft 372kts
09-Sep-23 13:48 38.077842 -108.278342 159 18191ft 361kts
09-Sep-23 13:49 38.012244 -108.186597 127 15936ft 358kts
09-Sep-23 13:50 37.957716 -108.090035 127 13760ft 311kts
09-Sep-23 13:51 37.930282 -108.001679 104 13231ft 235kts
09-Sep-23 13:52 37.916712 -107.935014 103 11515ft 176kts
09-Sep-23 13:53 37.919163 -107.879869 26 10514ft 161kts
09-Sep-23 13:54 37.950450 -107.893375 287 9204ft 135kts
09-Sep-23 13:55 37.954205 -107.910641 103 9033ft 17kts
09-Sep-23 13:56 37.952412 -107.901982 102 9064ft 21kts
09-Sep-23 13:57 37.954154 -107.902187 104 9064ft 2kts
09-Sep-23 13:58 37.954140 -107.902126 105 9065ft 0kts
09-Sep-23 13:58 37.954140 -107.902126 105 9065ft 0kts
09-Sep-23 14:00 37.954140 -107.902126 105 9065ft 0kts
09-Sep-23 14:01 37.954140 -107.902126 105 9065ft 0kts
09-Sep-23 14:02 37.954140 -107.902126 105 9065ft 0kts
09-Sep-23 14:02 37.954140 -107.902126 105 9065ft 0kts
09-Sep-23 14:03 37.954140 -107.902126 105 9065ft 0kts

Navigation Log

Ident Type
Flight plan parsing failed, navigation log unavailable